createdAt,value
2019-04-05T00:00:48.003Z,5.30
2019-04-05T00:03:16.113Z,4.15
2019-04-05T00:05:44.268Z,4.92
2019-04-05T00:08:12.573Z,3.98
2019-04-05T00:10:41.792Z,7.47
2019-04-05T00:13:10.067Z,7.10
2019-04-05T00:15:38.240Z,6.00
2019-04-05T00:18:06.451Z,6.58
2019-04-05T00:20:35.097Z,5.92
2019-04-05T00:23:03.277Z,10.25
2019-04-05T00:25:31.482Z,5.72
2019-04-05T00:27:59.723Z,7.03
2019-04-05T00:30:27.955Z,7.05
2019-04-05T00:32:56.077Z,7.42
2019-04-05T00:35:24.613Z,7.67
2019-04-05T00:37:52.801Z,10.90
2019-04-05T00:40:20.970Z,11.00
2019-04-05T00:42:49.139Z,7.67
2019-04-05T00:45:27.935Z,6.92
2019-04-05T00:47:49.671Z,8.48
2019-04-05T00:50:17.968Z,4.85
2019-04-05T00:52:46.060Z,7.70
2019-04-05T00:55:14.384Z,6.45
2019-04-05T00:57:44.456Z,4.83
2019-04-05T01:00:12.891Z,4.72
2019-04-05T01:02:41.087Z,4.70
2019-04-05T01:05:09.423Z,5.22
2019-04-05T01:07:37.629Z,5.30
2019-04-05T01:10:06.206Z,6.12
2019-04-05T01:12:34.833Z,4.10
2019-04-05T01:15:03.190Z,5.65
2019-04-05T01:17:31.587Z,4.75
2019-04-05T01:20:01.268Z,4.40
2019-04-05T01:24:58.090Z,5.55
2019-04-05T01:27:27.058Z,3.60
2019-04-05T01:29:55.284Z,4.58
2019-04-05T01:32:24.630Z,3.35
2019-04-05T01:34:52.766Z,2.60
2019-04-05T01:37:21.102Z,4.55
2019-04-05T01:39:49.284Z,8.28
2019-04-05T01:42:17.633Z,4.62
2019-04-05T01:44:46.003Z,6.40
2019-04-05T01:47:14.139Z,8.55
2019-04-05T01:49:42.351Z,6.70
2019-04-05T01:52:10.467Z,7.00
2019-04-05T01:54:38.630Z,7.17
2019-04-05T01:57:06.835Z,8.00
2019-04-05T01:59:35.040Z,12.07
2019-04-05T02:02:03.384Z,10.65
2019-04-05T02:04:32.607Z,12.63
2019-04-05T02:07:02.347Z,10.53
2019-04-05T02:09:30.596Z,8.83
2019-04-05T02:11:58.949Z,12.15
2019-04-05T02:14:27.122Z,9.33
2019-04-05T02:16:55.567Z,10.93
2019-04-05T02:19:23.799Z,8.43
2019-04-05T02:21:52.875Z,10.50
2019-04-05T02:24:21.107Z,9.75
2019-04-05T02:26:49.892Z,7.33
2019-04-05T02:29:18.040Z,9.10
2019-04-05T02:31:46.204Z,7.15
2019-04-05T02:34:14.383Z,9.78
2019-04-05T02:36:42.703Z,7.97
2019-04-05T02:39:10.907Z,7.45
2019-04-05T02:41:39.450Z,7.70
2019-04-05T02:44:09.166Z,5.05
2019-04-05T02:46:38.223Z,4.58
2019-04-05T02:49:07.251Z,4.20
2019-04-05T02:51:36.778Z,6.28
2019-04-05T02:54:05.133Z,5.80
2019-04-05T02:56:33.407Z,4.53
2019-04-05T02:59:01.764Z,5.67
2019-04-05T03:01:31.017Z,5.65
2019-04-05T03:03:59.653Z,6.00
2019-04-05T03:06:27.870Z,5.67
2019-04-05T03:08:56.028Z,6.60
2019-04-05T03:11:25.656Z,5.97
2019-04-05T03:13:55.403Z,5.47
2019-04-05T03:16:39.477Z,9.03
2019-04-05T03:18:57.474Z,4.85
2019-04-05T03:21:27.240Z,7.37
2019-04-05T03:23:56.854Z,7.95
2019-04-05T03:26:26.550Z,7.70
2019-04-05T03:28:56.175Z,6.25
2019-04-05T03:31:25.604Z,6.35
2019-04-05T03:33:54.678Z,7.42
2019-04-05T03:36:24.306Z,9.70
2019-04-05T03:38:52.441Z,6.62
2019-04-05T03:41:20.651Z,9.68
2019-04-05T03:43:50.066Z,7.10
2019-04-05T03:46:18.849Z,4.78
2019-04-05T03:48:47.791Z,5.62
2019-04-05T03:51:15.928Z,5.97
2019-04-05T03:53:44.152Z,5.85
2019-04-05T03:56:12.393Z,4.95
2019-04-05T03:58:40.558Z,4.70
2019-04-05T04:01:08.904Z,4.37
2019-04-05T04:03:37.353Z,4.67
2019-04-05T04:06:05.581Z,4.80
2019-04-05T04:08:34.994Z,4.30
2019-04-05T04:11:03.270Z,3.60
2019-04-05T04:13:31.409Z,3.10
2019-04-05T04:15:59.839Z,4.83
2019-04-05T04:18:28.036Z,5.15
2019-04-05T04:20:57.726Z,6.22
2019-04-05T04:23:27.326Z,4.00
2019-04-05T04:25:55.682Z,5.90
2019-04-05T04:28:24.107Z,3.33
2019-04-05T04:30:52.587Z,4.85
2019-04-05T04:33:20.736Z,5.05
2019-04-05T04:35:49.253Z,4.28
2019-04-05T04:38:17.649Z,4.35
2019-04-05T04:40:45.861Z,3.50
2019-04-05T04:43:14.728Z,3.42
2019-04-05T04:45:43.365Z,3.58
2019-04-05T04:48:11.582Z,5.55
2019-04-05T04:50:39.811Z,3.80
2019-04-05T04:53:08.364Z,5.65
2019-04-05T04:55:36.492Z,4.10
2019-04-05T04:58:04.962Z,7.37
2019-04-05T05:00:33.274Z,4.40
2019-04-05T05:03:02.026Z,4.40
2019-04-05T05:05:30.181Z,4.50
2019-04-05T05:07:58.463Z,4.25
2019-04-05T05:10:26.837Z,4.17
2019-04-05T05:12:55.303Z,5.55
2019-04-05T05:15:23.661Z,8.45
2019-04-05T05:17:58.445Z,4.87
2019-04-05T05:20:22.134Z,6.40
2019-04-05T05:22:50.247Z,4.87
2019-04-05T05:25:18.504Z,5.53
2019-04-05T05:27:46.864Z,4.75
2019-04-05T05:30:15.028Z,4.17
2019-04-05T05:32:44.065Z,4.67
2019-04-05T05:35:12.473Z,3.62
2019-04-05T05:37:40.955Z,4.72
2019-04-05T05:40:10.893Z,4.12
2019-04-05T05:42:39.524Z,5.03
2019-04-05T05:45:08.333Z,4.85
2019-04-05T05:47:36.627Z,4.50
2019-04-05T05:50:06.476Z,3.95
2019-04-05T05:52:35.169Z,4.40
2019-04-05T05:55:04.113Z,4.20
2019-04-05T05:57:33.362Z,3.20
2019-04-05T06:00:01.491Z,3.35
2019-04-05T06:02:29.811Z,4.30
2019-04-05T06:04:59.094Z,2.60
2019-04-05T06:07:27.160Z,3.27
2019-04-05T06:09:55.276Z,5.37
2019-04-05T06:12:24.241Z,5.00
2019-04-05T06:14:52.313Z,2.87
2019-04-05T06:17:20.384Z,2.40
2019-04-05T06:19:48.493Z,3.37
2019-04-05T06:22:16.634Z,2.70
2019-04-05T06:24:44.732Z,3.12
2019-04-05T06:27:12.843Z,4.85
2019-04-05T06:29:41.095Z,3.37
2019-04-05T06:32:09.296Z,3.30
2019-04-05T06:34:37.429Z,2.27
2019-04-05T06:37:06.538Z,2.33
2019-04-05T06:39:34.670Z,2.72
2019-04-05T06:42:02.748Z,1.77
2019-04-05T06:44:32.359Z,3.45
2019-04-05T06:47:01.066Z,2.22
2019-04-05T06:49:34.876Z,3.83
2019-04-05T06:52:06.575Z,2.47
2019-04-05T06:54:36.540Z,2.80
2019-04-05T06:57:04.712Z,2.55
2019-04-05T06:59:33.149Z,2.02
2019-04-05T07:02:01.381Z,3.20
2019-04-05T07:04:31.224Z,4.28
2019-04-05T07:06:59.472Z,3.47
2019-04-05T07:09:27.696Z,2.50
2019-04-05T07:11:55.807Z,3.08
2019-04-05T07:14:23.988Z,1.65
2019-04-05T07:16:52.508Z,2.95
2019-04-05T07:19:20.580Z,2.85
2019-04-05T07:21:48.822Z,2.75
2019-04-05T07:24:17.386Z,5.05
2019-04-05T07:26:45.471Z,3.80
2019-04-05T07:29:13.568Z,3.30
2019-04-05T07:31:42.903Z,3.25
2019-04-05T07:34:11.245Z,2.27
2019-04-05T07:36:39.318Z,3.98
2019-04-05T07:39:07.561Z,2.80
2019-04-05T07:41:35.705Z,3.33
2019-04-05T07:44:03.963Z,3.22
2019-04-05T07:46:32.261Z,4.53
2019-04-05T07:49:00.423Z,3.50
2019-04-05T07:51:29.790Z,3.55
2019-04-05T07:53:57.993Z,3.70
2019-04-05T07:56:26.133Z,3.70
2019-04-05T07:58:54.405Z,3.55
2019-04-05T08:01:23.778Z,3.27
2019-04-05T08:03:52.121Z,3.85
2019-04-05T08:06:20.260Z,3.55
2019-04-05T08:08:55.804Z,2.60
2019-04-05T08:11:24.314Z,3.47
2019-04-05T08:13:52.664Z,3.77
2019-04-05T08:16:20.803Z,3.67
2019-04-05T08:18:57.698Z,2.30
2019-04-05T08:21:18.826Z,2.57
2019-04-05T08:23:47.100Z,3.15
2019-04-05T08:26:16.747Z,2.75
2019-04-05T08:28:44.883Z,2.12
2019-04-05T08:31:14.529Z,1.95
2019-04-05T08:33:42.779Z,1.93
2019-04-05T08:36:11.009Z,2.52
2019-04-05T08:38:40.030Z,3.45
2019-04-05T08:41:08.367Z,3.55
2019-04-05T08:43:37.003Z,2.95
2019-04-05T08:46:05.565Z,2.45
2019-04-05T08:48:33.674Z,2.40
2019-04-05T08:51:01.850Z,2.55
2019-04-05T08:53:30.202Z,3.22
2019-04-05T08:55:58.455Z,2.72
2019-04-05T08:58:33.374Z,2.22
2019-04-05T09:00:56.570Z,4.22
2019-04-05T09:03:24.766Z,4.03
2019-04-05T09:05:52.827Z,2.35
2019-04-05T09:08:21.540Z,5.80
2019-04-05T09:10:49.766Z,3.22
2019-04-05T09:13:19.063Z,5.70
2019-04-05T09:15:47.286Z,3.87
2019-04-05T09:18:15.535Z,5.85
2019-04-05T09:20:43.615Z,2.62
2019-04-05T09:23:11.829Z,2.37
2019-04-05T09:25:40.000Z,2.10
2019-04-05T09:28:08.129Z,2.12
2019-04-05T09:30:36.269Z,2.27
2019-04-05T09:33:04.522Z,4.72
2019-04-05T09:35:32.697Z,4.28
2019-04-05T09:38:02.454Z,3.67
2019-04-05T09:40:30.755Z,4.00
2019-04-05T09:42:58.866Z,2.60
2019-04-05T09:45:27.106Z,2.33
2019-04-05T09:47:55.172Z,1.95
2019-04-05T09:50:23.319Z,2.65
2019-04-05T09:52:51.474Z,3.37
2019-04-05T09:55:23.279Z,2.37
2019-04-05T09:57:51.822Z,2.35
2019-04-05T10:00:25.360Z,2.95
2019-04-05T10:02:53.453Z,3.22
2019-04-05T10:05:21.734Z,2.60
2019-04-05T10:07:55.329Z,2.87
2019-04-05T10:10:19.777Z,2.33
2019-04-05T10:12:48.481Z,3.08
2019-04-05T10:15:18.245Z,2.62
2019-04-05T10:17:46.629Z,1.82
2019-04-05T10:20:14.969Z,2.35
2019-04-05T10:22:43.043Z,3.17
2019-04-05T10:25:11.198Z,3.27
2019-04-05T10:27:39.285Z,2.92
2019-04-05T10:30:08.903Z,2.60
2019-04-05T10:32:37.109Z,1.82
2019-04-05T10:35:05.398Z,2.87
2019-04-05T10:37:33.487Z,1.82
2019-04-05T10:40:01.667Z,2.42
2019-04-05T10:42:31.687Z,2.47
2019-04-05T10:44:59.913Z,3.62
2019-04-05T10:47:28.217Z,2.40
2019-04-05T10:50:03.349Z,4.05
2019-04-05T10:52:27.277Z,2.53
2019-04-05T10:54:57.761Z,1.67
2019-04-05T10:57:25.384Z,2.43
2019-04-05T10:59:53.505Z,1.90
2019-04-05T11:02:21.703Z,3.98
2019-04-05T11:04:49.862Z,3.20
2019-04-05T11:07:18.023Z,3.50
2019-04-05T11:09:46.144Z,3.45
2019-04-05T11:12:16.042Z,2.08
2019-04-05T11:14:44.502Z,2.30
2019-04-05T11:17:12.579Z,2.12
2019-04-05T11:19:40.643Z,2.65
2019-04-05T11:22:08.845Z,1.77
2019-04-05T11:24:37.014Z,1.70
2019-04-05T11:27:06.665Z,1.62
2019-04-05T11:29:35.012Z,2.10
2019-04-05T11:32:03.410Z,2.90
2019-04-05T11:34:31.512Z,3.58
2019-04-05T11:37:06.318Z,3.55
2019-04-05T11:39:34.692Z,6.20
2019-04-05T11:42:03.566Z,3.72
2019-04-05T11:44:33.834Z,3.30
2019-04-05T11:47:03.566Z,3.70
2019-04-05T11:49:33.250Z,6.25
2019-04-05T11:52:01.377Z,4.00
2019-04-05T11:54:29.549Z,3.98
2019-04-05T11:56:57.787Z,3.00
2019-04-05T11:59:26.140Z,4.05
2019-04-05T12:01:55.833Z,3.10
2019-04-05T12:04:23.951Z,3.12
2019-04-05T12:06:52.585Z,2.60
2019-04-05T12:09:21.822Z,3.92
2019-04-05T12:11:49.996Z,3.17
2019-04-05T12:14:29.679Z,2.58
2019-04-05T12:16:49.534Z,4.67
2019-04-05T12:19:17.615Z,4.12
2019-04-05T12:21:45.713Z,2.52
2019-04-05T12:24:13.915Z,4.17
2019-04-05T12:26:42.767Z,5.45
2019-04-05T12:29:11.127Z,3.37
2019-04-05T12:31:39.331Z,2.75
2019-04-05T12:34:07.691Z,3.22
2019-04-05T12:36:35.795Z,5.05
2019-04-05T12:39:08.056Z,5.53
2019-04-05T12:41:35.284Z,4.22
2019-04-05T12:44:03.393Z,5.53
2019-04-05T12:46:31.459Z,3.35
2019-04-05T12:48:59.636Z,2.33
2019-04-05T12:51:27.714Z,3.83
2019-04-05T12:53:56.885Z,5.72
2019-04-05T12:56:26.519Z,5.60
2019-04-05T13:01:24.622Z,5.00
2019-04-05T13:03:53.044Z,5.20
2019-04-05T13:06:21.760Z,4.15
2019-04-05T13:08:51.507Z,6.67
2019-04-05T13:11:19.798Z,5.00
2019-04-05T13:13:47.869Z,3.45
2019-04-05T13:16:19.021Z,5.95
2019-04-05T13:18:47.136Z,3.75
2019-04-05T13:21:15.733Z,3.10
2019-04-05T13:23:43.973Z,3.17
2019-04-05T13:26:12.526Z,3.58
2019-04-05T13:28:40.768Z,4.28
2019-04-05T13:31:09.484Z,2.62
2019-04-05T13:33:37.629Z,2.35
2019-04-05T13:36:08.264Z,3.27
2019-04-05T13:38:35.573Z,3.63
2019-04-05T13:41:04.057Z,2.65
2019-04-05T13:43:32.754Z,3.98
2019-04-05T13:46:01.123Z,2.80
2019-04-05T13:48:29.339Z,3.22
2019-04-05T13:50:57.518Z,2.08
2019-04-05T13:53:25.697Z,2.20
2019-04-05T13:55:53.926Z,1.77
2019-04-05T13:58:22.073Z,1.57
2019-04-05T14:00:50.231Z,2.27
2019-04-05T14:03:18.612Z,3.40
2019-04-05T14:05:50.092Z,2.87
2019-04-05T14:08:18.687Z,2.73
2019-04-05T14:10:46.958Z,3.47
2019-04-05T14:13:15.038Z,2.22
2019-04-05T14:15:43.191Z,4.65
2019-04-05T14:18:14.473Z,3.30
2019-04-05T14:20:41.121Z,2.67
2019-04-05T14:23:09.192Z,3.50
2019-04-05T14:25:38.276Z,5.85
2019-04-05T14:28:06.368Z,2.50
2019-04-05T14:30:34.647Z,4.22
2019-04-05T14:33:03.165Z,2.50
2019-04-05T14:35:31.409Z,2.83
2019-04-05T14:37:59.474Z,3.10
2019-04-05T14:40:29.414Z,2.17
2019-04-05T14:42:57.398Z,2.20
2019-04-05T14:45:25.544Z,2.27
2019-04-05T14:47:57.700Z,2.30
2019-04-05T14:50:24.229Z,2.20
2019-04-05T14:52:52.385Z,3.22
2019-04-05T14:55:20.472Z,4.47
2019-04-05T14:57:48.608Z,3.37
2019-04-05T15:00:18.973Z,5.45
2019-04-05T15:02:47.058Z,2.27
2019-04-05T15:05:16.427Z,3.22
2019-04-05T15:07:44.617Z,2.83
2019-04-05T15:10:12.920Z,2.37
2019-04-05T15:12:41.011Z,3.30
2019-04-05T15:15:10.486Z,2.40
2019-04-05T15:17:48.007Z,3.20
2019-04-05T15:20:08.699Z,2.90
2019-04-05T15:22:36.832Z,4.55
2019-04-05T15:25:06.253Z,3.10
2019-04-05T15:27:34.558Z,5.28
2019-04-05T15:30:02.662Z,2.55
2019-04-05T15:32:32.286Z,3.55
2019-04-05T15:35:00.465Z,3.50
2019-04-05T15:37:31.600Z,3.12
2019-04-05T15:40:00.427Z,2.57
2019-04-05T15:42:29.770Z,2.58
2019-04-05T15:44:58.987Z,5.83
2019-04-05T15:47:27.195Z,2.80
2019-04-05T15:49:55.386Z,5.20
2019-04-05T15:52:25.495Z,2.05
2019-04-05T15:54:53.264Z,2.40
2019-04-05T15:57:21.597Z,3.72
2019-04-05T15:59:49.806Z,2.98
2019-04-05T16:02:18.535Z,3.52
2019-04-05T16:04:46.811Z,3.20
2019-04-05T16:07:14.900Z,3.30
2019-04-05T16:09:43.090Z,4.55
2019-04-05T16:12:11.202Z,4.35
2019-04-05T16:14:39.287Z,2.70
2019-04-05T16:17:07.645Z,3.20
2019-04-05T16:19:35.786Z,3.55
2019-04-05T16:22:03.853Z,4.85
2019-04-05T16:24:33.655Z,3.02
2019-04-05T16:27:01.869Z,4.40
2019-04-05T16:29:30.072Z,4.20
2019-04-05T16:31:58.197Z,2.45
2019-04-05T16:34:26.498Z,3.15
2019-04-05T16:36:54.642Z,4.05
2019-04-05T16:39:22.707Z,3.42
2019-04-05T16:41:50.936Z,3.42
2019-04-05T16:44:19.116Z,2.58
2019-04-05T16:46:47.321Z,4.40
2019-04-05T16:49:15.432Z,3.87
2019-04-05T16:51:43.575Z,4.10
2019-04-05T16:54:13.562Z,2.05
2019-04-05T16:56:41.826Z,1.57
2019-04-05T16:59:09.989Z,2.12
2019-04-05T17:01:38.298Z,3.10
2019-04-05T17:04:06.438Z,2.65
2019-04-05T17:06:34.507Z,1.92
2019-04-05T17:09:02.740Z,2.47
2019-04-05T17:11:32.602Z,2.30
2019-04-05T17:14:01.832Z,2.55
2019-04-05T17:16:30.010Z,3.55
2019-04-05T17:18:58.165Z,2.42
2019-04-05T17:21:26.232Z,2.58
2019-04-05T17:23:54.373Z,2.10
2019-04-05T17:26:22.546Z,2.10
2019-04-05T17:28:50.805Z,2.60
2019-04-05T17:31:19.934Z,2.47
2019-04-05T17:33:48.183Z,3.10
2019-04-05T17:36:16.734Z,6.00
2019-04-05T17:38:44.883Z,3.47
2019-04-05T17:41:13.178Z,3.42
2019-04-05T17:43:41.542Z,2.20
2019-04-05T17:46:10.066Z,3.65
2019-04-05T17:48:38.206Z,2.42
2019-04-05T17:51:06.327Z,2.77
2019-04-05T17:53:34.666Z,3.20
2019-04-05T17:56:02.969Z,1.80
2019-04-05T17:58:33.418Z,2.37
2019-04-05T18:01:03.793Z,3.50
2019-04-05T18:03:33.202Z,2.87
2019-04-05T18:06:01.704Z,2.33
2019-04-05T18:08:30.624Z,3.52
2019-04-05T18:11:00.753Z,2.10
2019-04-05T18:13:29.397Z,2.08
2019-04-05T18:15:57.951Z,1.52
2019-04-05T18:18:26.602Z,2.65
2019-04-05T18:20:56.950Z,1.98
2019-04-05T18:23:27.435Z,2.35
2019-04-05T18:28:27.024Z,2.30
2019-04-05T18:30:55.646Z,1.55
2019-04-05T18:33:23.767Z,1.95
2019-04-05T18:35:53.020Z,1.92
2019-04-05T18:38:22.064Z,1.73
2019-04-05T18:40:50.923Z,2.60
2019-04-05T18:43:19.007Z,2.45
2019-04-05T18:45:49.204Z,2.00
2019-04-05T18:48:17.401Z,2.22
2019-04-05T18:50:48.550Z,1.95
2019-04-05T18:53:17.489Z,1.98
2019-04-05T18:55:48.950Z,1.72
2019-04-05T18:58:17.148Z,1.98
2019-04-05T19:00:45.434Z,1.90
2019-04-05T19:03:13.583Z,2.58
2019-04-05T19:05:41.757Z,2.42
2019-04-05T19:08:09.852Z,2.20
2019-04-05T19:10:37.941Z,2.10
2019-04-05T19:13:06.091Z,1.98
2019-04-05T19:15:34.251Z,1.65
2019-04-05T19:18:02.325Z,2.33
2019-04-05T19:20:30.472Z,1.70
2019-04-05T19:22:58.554Z,2.08
2019-04-05T19:25:26.706Z,1.85
2019-04-05T19:27:54.854Z,2.72
2019-04-05T19:50:22.421Z,2.15
2019-04-05T19:52:50.564Z,3.40
2019-04-05T19:55:18.743Z,2.37
2019-04-05T19:57:47.005Z,3.10
2019-04-05T20:00:16.055Z,1.67
2019-04-05T20:02:44.211Z,2.47
2019-04-05T20:05:12.670Z,2.87
2019-04-05T20:07:41.174Z,2.62
2019-04-05T20:10:09.384Z,2.70
2019-04-05T20:12:37.760Z,2.50
2019-04-05T20:15:06.226Z,2.77
2019-04-05T20:17:34.724Z,3.15
2019-04-05T20:20:04.356Z,1.95
2019-04-05T20:22:32.802Z,2.17
2019-04-05T20:25:00.989Z,2.85
2019-04-05T20:27:29.216Z,2.10
2019-04-05T20:29:58.030Z,2.05
2019-04-05T20:32:28.195Z,3.52
2019-04-05T20:34:57.075Z,2.33
2019-04-05T20:37:27.241Z,2.15
2019-04-05T20:39:58.460Z,2.52
2019-04-05T20:42:28.231Z,2.67
2019-04-05T20:45:00.319Z,2.92
2019-04-05T20:47:32.090Z,3.20
2019-04-05T20:50:02.444Z,4.45
2019-04-05T20:52:31.015Z,3.00
2019-04-05T20:54:59.727Z,2.95
2019-04-05T20:57:28.560Z,1.90
2019-04-05T20:59:57.797Z,2.40
2019-04-05T21:02:26.047Z,2.22
2019-04-05T21:04:55.510Z,1.92
2019-04-05T21:07:23.738Z,2.35
2019-04-05T21:09:51.854Z,2.25
2019-04-05T21:12:20.059Z,2.37
2019-04-05T21:14:48.115Z,3.55
2019-04-05T21:17:16.210Z,3.33
2019-04-05T21:19:44.328Z,2.33
2019-04-05T21:22:12.442Z,2.45
2019-04-05T21:24:40.536Z,3.12
2019-04-05T21:27:08.684Z,3.85
2019-04-05T21:29:36.794Z,3.90
2019-04-05T21:32:04.983Z,2.80
2019-04-05T21:34:33.136Z,3.30
2019-04-05T21:37:01.375Z,1.92
2019-04-05T21:39:29.544Z,2.40
2019-04-05T21:41:58.268Z,2.35
2019-04-05T21:44:26.452Z,2.50
2019-04-05T21:46:54.540Z,2.45
2019-04-05T21:49:24.272Z,4.03
2019-04-05T21:51:52.444Z,3.15
2019-04-05T21:54:20.668Z,2.80
2019-04-05T21:56:48.846Z,1.90
2019-04-05T21:59:17.016Z,2.95
2019-04-05T22:01:45.471Z,2.30
2019-04-05T22:04:13.643Z,2.75
2019-04-05T22:06:41.921Z,2.60
2019-04-05T22:09:10.519Z,3.02
2019-04-05T22:11:39.091Z,3.05
2019-04-05T22:14:07.396Z,3.15
2019-04-05T22:16:35.593Z,2.10
2019-04-05T22:19:03.792Z,2.90
2019-04-05T22:21:33.472Z,1.67
2019-04-05T22:24:01.695Z,2.20
2019-04-05T22:26:29.934Z,2.75
2019-04-05T22:28:58.465Z,2.75
2019-04-05T22:31:26.822Z,2.55
2019-04-05T22:33:54.995Z,2.00
2019-04-05T22:36:23.187Z,2.50
2019-04-05T22:38:51.415Z,2.62
2019-04-05T22:41:19.790Z,2.52
2019-04-05T22:43:48.584Z,3.58
2019-04-05T22:46:16.781Z,3.92
2019-04-05T22:48:44.986Z,1.85
2019-04-05T22:51:13.209Z,2.85
2019-04-05T22:53:41.362Z,2.92
2019-04-05T22:56:09.562Z,2.45
2019-04-05T22:58:38.246Z,2.60
2019-04-05T23:01:06.440Z,2.33
2019-04-05T23:03:34.676Z,2.67
2019-04-05T23:06:03.279Z,3.27
2019-04-05T23:08:31.499Z,2.47
2019-04-05T23:11:00.198Z,3.10
2019-04-05T23:13:28.395Z,3.47
2019-04-05T23:15:56.573Z,2.70
2019-04-05T23:18:24.885Z,3.12
2019-04-05T23:20:53.066Z,2.47
2019-04-05T23:23:22.098Z,3.60
2019-04-05T23:25:50.324Z,2.35
2019-04-05T23:28:19.842Z,2.80
2019-04-05T23:30:48.009Z,2.92
2019-04-05T23:33:16.226Z,4.12
2019-04-05T23:35:46.036Z,2.47
2019-04-05T23:38:14.246Z,2.20
2019-04-05T23:40:42.390Z,2.62
2019-04-05T23:43:10.591Z,5.60
2019-04-05T23:45:38.767Z,5.03
2019-04-05T23:48:06.958Z,3.70
2019-04-05T23:50:35.215Z,5.47
2019-04-05T23:53:03.635Z,3.92
2019-04-05T23:55:33.677Z,7.70
2019-04-05T23:58:01.653Z,5.77
